Time;durP1;ratioP1;P1;durP2;ratioP2;P2;SDS_P1;SDS_P2;PMS_P1;PMS_P2;Temp;Humidity;BMP_temperature;BMP_pressure;BME280_temperature;BME280_humidity;BME280_pressure;Samples;Min_cycle;Max_cycle;Signal;HPM_P1;HPM_P2
2022/04/20 00:00:35;;;;;;;4.70;4.20;;;2.60;99.90;;;;;;7374940;19;20350;-73
2022/04/20 00:03:02;;;;;;;5.28;3.90;;;2.60;99.90;;;;;;7374255;19;20353;-73
2022/04/20 00:05:32;;;;;;;6.88;5.45;;;2.60;99.90;;;;;;7372177;19;20339;-73
2022/04/20 00:07:57;;;;;;;5.97;4.68;;;2.50;99.90;;;;;;7373740;19;20312;-71
2022/04/20 00:10:23;;;;;;;7.50;4.68;;;2.40;99.90;;;;;;7371067;19;20349;-72
2022/04/20 00:12:49;;;;;;;8.35;5.10;;;2.40;99.90;;;;;;7373445;19;20360;-72
2022/04/20 00:15:15;;;;;;;7.43;5.00;;;2.50;99.90;;;;;;7371421;19;20889;-70
2022/04/20 00:17:40;;;;;;;6.25;4.50;;;2.50;99.90;;;;;;7375542;19;20337;-71
2022/04/20 00:20:07;;;;;;;6.40;4.53;;;2.50;99.90;;;;;;7373988;19;21271;-70
2022/04/20 00:22:33;;;;;;;5.82;4.28;;;2.50;99.90;;;;;;7375115;19;20345;-73
2022/04/20 00:24:58;;;;;;;5.82;5.18;;;2.50;99.90;;;;;;7373435;19;20348;-71
2022/04/20 00:27:24;;;;;;;5.73;4.07;;;2.30;99.90;;;;;;7371447;19;20674;-72
2022/04/20 00:29:49;;;;;;;6.50;4.65;;;2.30;99.90;;;;;;7373654;19;20345;-70
2022/04/20 00:32:15;;;;;;;7.95;4.95;;;2.40;99.90;;;;;;7372576;19;21147;-76
2022/04/20 00:34:41;;;;;;;6.53;5.37;;;2.40;99.90;;;;;;7374285;19;20936;-71
2022/04/20 00:37:06;;;;;;;7.80;5.38;;;2.40;99.90;;;;;;7359372;19;20337;-70
2022/04/20 00:39:33;;;;;;;7.07;4.60;;;2.30;99.90;;;;;;7366179;19;20332;-70
2022/04/20 00:41:58;;;;;;;5.50;4.65;;;2.40;99.90;;;;;;7372534;19;20337;-71
2022/04/20 00:44:25;;;;;;;4.70;4.20;;;2.40;99.90;;;;;;7375399;19;20468;-70
2022/04/20 00:46:50;;;;;;;5.60;4.20;;;2.50;99.90;;;;;;7375869;19;20305;-71
2022/04/20 00:49:16;;;;;;;4.20;3.80;;;2.50;99.90;;;;;;7366758;19;20344;-73
2022/04/20 00:51:57;;;;;;;5.75;4.00;;;2.60;99.90;;;;;;7371653;19;20355;-72
2022/04/20 00:54:24;;;;;;;5.88;4.03;;;2.70;99.90;;;;;;7371714;19;20336;-72
2022/04/20 00:56:50;;;;;;;4.43;4.00;;;2.70;99.90;;;;;;7373245;19;20312;-72
2022/04/20 00:59:21;;;;;;;4.45;3.88;;;2.80;99.90;;;;;;7379993;19;20340;-72
2022/04/20 01:01:47;;;;;;;4.28;3.78;;;2.90;99.90;;;;;;7377621;19;20357;-71
2022/04/20 01:04:13;;;;;;;4.55;3.40;;;2.90;99.90;;;;;;7378317;19;20325;-75
2022/04/20 01:06:59;;;;;;;6.03;4.50;;;3.10;99.90;;;;;;7377951;19;20336;-69
2022/04/20 01:09:47;;;;;;;6.43;5.30;;;3.10;99.90;;;;;;7378475;19;20316;-70
2022/04/20 01:12:31;;;;;;;6.43;5.28;;;3.10;99.90;;;;;;7277015;19;2004453;-71
2022/04/20 01:15:23;;;;;;;6.25;5.05;;;3.20;99.90;;;;;;7276101;19;2004421;-71
2022/04/20 01:18:18;;;;;;;6.35;5.05;;;3.30;99.90;;;;;;7277734;19;2004452;-71
2022/04/20 01:20:53;;;;;;;6.45;5.10;;;3.40;99.90;;;;;;7378754;19;20340;-70
2022/04/20 01:23:42;;;;;;;5.78;4.72;;;3.40;99.90;;;;;;7277030;19;2004485;-70
2022/04/20 01:26:28;;;;;;;7.97;6.10;;;3.50;99.90;;;;;;7378283;19;20370;-70
2022/04/20 01:29:02;;;;;;;8.45;6.72;;;3.40;99.90;;;;;;7378140;19;20370;-71
2022/04/20 01:31:33;;;;;;;6.55;5.55;;;3.30;99.90;;;;;;7374890;19;20750;-70
2022/04/20 01:34:18;;;;;;;7.13;5.20;;;3.30;99.90;;;;;;7380330;19;20352;-73
2022/04/20 01:36:43;;;;;;;8.13;6.13;;;3.20;99.90;;;;;;7378795;19;20349;-70
2022/04/20 01:39:09;;;;;;;8.33;6.50;;;3.20;99.90;;;;;;7378764;19;20417;-72
2022/04/20 01:41:35;;;;;;;7.38;5.40;;;3.30;99.90;;;;;;7374834;19;20329;-72
2022/04/20 01:44:00;;;;;;;5.57;4.90;;;3.30;99.90;;;;;;7378844;19;20654;-71
2022/04/20 01:46:45;;;;;;;7.57;5.15;;;3.30;99.90;;;;;;7276508;19;2004578;-73
2022/04/20 01:49:40;;;;;;;7.13;5.50;;;3.40;99.90;;;;;;7274838;19;2004161;-70
2022/04/20 01:52:19;;;;;;;5.95;5.32;;;3.40;99.90;;;;;;7376409;19;20794;-71
2022/04/20 01:55:05;;;;;;;5.40;4.65;;;3.30;99.90;;;;;;7277421;19;2004588;-70
2022/04/20 01:57:52;;;;;;;5.47;4.97;;;3.40;99.90;;;;;;7276414;19;2004449;-75
2022/04/20 02:00:34;;;;;;;4.88;4.38;;;3.30;99.90;;;;;;7374903;19;20313;-72
2022/04/20 02:03:19;;;;;;;5.05;4.53;;;3.40;99.90;;;;;;7379183;19;20336;-70
2022/04/20 02:06:14;;;;;;;5.28;4.30;;;3.40;99.90;;;;;;7275199;19;2004624;-74
2022/04/20 02:08:57;;;;;;;5.57;4.73;;;3.40;99.90;;;;;;7376726;19;21385;-71
2022/04/20 02:11:38;;;;;;;4.60;4.20;;;3.40;99.90;;;;;;7376551;19;20328;-71
2022/04/20 02:14:15;;;;;;;4.43;4.00;;;3.40;99.90;;;;;;7379629;19;20363;-72
2022/04/20 02:16:45;;;;;;;5.28;4.18;;;3.50;99.90;;;;;;7377197;19;20407;-74
2022/04/20 02:19:20;;;;;;;4.53;3.90;;;3.50;99.90;;;;;;7378901;19;20353;-71
2022/04/20 02:21:52;;;;;;;4.45;4.00;;;3.50;99.90;;;;;;7377495;19;20939;-72
2022/04/20 02:24:19;;;;;;;5.00;4.20;;;3.50;99.90;;;;;;7377750;19;20364;-71
2022/04/20 02:26:45;;;;;;;4.45;4.05;;;3.60;99.90;;;;;;7378009;19;20350;-71
2022/04/20 02:29:10;;;;;;;4.53;4.13;;;3.60;99.90;;;;;;7378642;19;20336;-72
2022/04/20 02:31:36;;;;;;;5.60;4.50;;;3.70;99.90;;;;;;7375995;19;20313;-70
2022/04/20 02:34:02;;;;;;;4.60;4.10;;;3.70;99.90;;;;;;7375867;19;20719;-71
2022/04/20 02:36:27;;;;;;;5.10;4.33;;;3.60;99.90;;;;;;7376246;19;20844;-70
2022/04/20 02:38:53;;;;;;;5.78;4.78;;;3.60;99.90;;;;;;7376483;19;20352;-72
2022/04/20 02:41:19;;;;;;;4.28;3.88;;;3.70;99.90;;;;;;7377902;19;20311;-70
2022/04/20 02:43:44;;;;;;;4.50;4.10;;;3.70;99.90;;;;;;7376940;19;20349;-71
2022/04/20 02:46:10;;;;;;;4.60;4.13;;;3.70;99.90;;;;;;7375323;19;20332;-71
2022/04/20 02:48:36;;;;;;;4.40;4.00;;;3.80;99.90;;;;;;7379102;19;20328;-71
2022/04/20 02:51:02;;;;;;;4.57;4.17;;;3.80;99.90;;;;;;7373286;19;21043;-71
2022/04/20 02:53:27;;;;;;;4.68;3.70;;;3.90;99.90;;;;;;7377265;19;20317;-73
2022/04/20 02:55:53;;;;;;;4.10;3.70;;;3.90;99.90;;;;;;7378653;19;20828;-72
2022/04/20 02:58:20;;;;;;;3.67;3.38;;;4.00;99.90;;;;;;7375846;19;20369;-71
2022/04/20 03:00:51;;;;;;;3.95;3.65;;;4.10;99.90;;;;;;7373596;19;20332;-72
2022/04/20 03:03:27;;;;;;;5.83;4.07;;;4.10;99.90;;;;;;7373739;19;20321;-74
2022/04/20 03:05:57;;;;;;;4.70;3.20;;;4.10;99.90;;;;;;7372822;19;20336;-72
2022/04/20 03:08:24;;;;;;;4.20;3.78;;;4.10;99.90;;;;;;7373320;19;20360;-73
2022/04/20 03:10:56;;;;;;;4.07;3.50;;;4.10;99.90;;;;;;7373804;19;20797;-71
2022/04/20 03:13:23;;;;;;;4.70;3.97;;;4.10;99.90;;;;;;7367328;19;20296;-72
2022/04/20 03:15:50;;;;;;;5.10;3.73;;;4.10;99.90;;;;;;7374264;19;20301;-71
2022/04/20 03:18:16;;;;;;;4.57;4.10;;;4.00;99.90;;;;;;7376000;19;20676;-75
2022/04/20 03:20:42;;;;;;;4.95;3.78;;;4.10;99.90;;;;;;7374181;19;20371;-74
2022/04/20 03:23:08;;;;;;;4.55;4.05;;;4.00;99.90;;;;;;7377807;19;20349;-72
2022/04/20 03:25:34;;;;;;;4.93;3.95;;;4.20;99.90;;;;;;7371676;19;20329;-71
2022/04/20 03:28:28;;;;;;;5.32;4.50;;;4.00;99.90;;;;;;7273509;19;2004329;-70
2022/04/20 03:30:54;;;;;;;5.38;4.38;;;4.00;99.90;;;;;;7372020;19;20357;-72
2022/04/20 03:33:20;;;;;;;4.90;4.40;;;4.00;99.90;;;;;;7375991;19;20330;-71
2022/04/20 03:35:45;;;;;;;4.73;4.13;;;3.90;99.90;;;;;;7376675;19;20315;-72
2022/04/20 03:38:11;;;;;;;4.43;4.05;;;3.90;99.90;;;;;;7374358;19;20325;-72
2022/04/20 03:40:37;;;;;;;5.67;4.50;;;4.00;99.90;;;;;;7377378;19;20308;-70
2022/04/20 03:43:02;;;;;;;5.65;4.85;;;3.90;99.90;;;;;;7378449;19;20359;-77
2022/04/20 03:45:28;;;;;;;5.20;4.70;;;3.90;99.90;;;;;;7373894;19;20321;-75
2022/04/20 03:47:54;;;;;;;5.07;4.57;;;3.80;99.90;;;;;;7376627;19;21313;-72
2022/04/20 03:50:20;;;;;;;5.43;4.75;;;3.80;99.90;;;;;;7373749;19;20355;-71
2022/04/20 03:52:45;;;;;;;5.03;4.53;;;3.80;99.90;;;;;;7374393;19;20361;-72
2022/04/20 03:55:11;;;;;;;5.50;4.45;;;3.80;99.90;;;;;;7375716;19;20331;-70
2022/04/20 03:57:38;;;;;;;5.57;4.30;;;3.80;99.90;;;;;;7373775;19;20311;-71
2022/04/20 04:00:05;;;;;;;4.55;4.00;;;3.80;99.90;;;;;;7375304;19;20690;-71
2022/04/20 04:02:32;;;;;;;4.53;4.13;;;3.90;99.90;;;;;;7374479;19;20400;-70
2022/04/20 04:05:12;;;;;;;4.40;4.00;;;3.90;99.90;;;;;;7273808;19;2004307;-72
2022/04/20 04:07:58;;;;;;;4.80;4.40;;;3.90;99.90;;;;;;7272875;19;2004566;-72
2022/04/20 04:10:29;;;;;;;5.63;4.50;;;3.90;99.90;;;;;;7372950;19;20320;-71
2022/04/20 04:12:55;;;;;;;5.03;4.33;;;3.90;99.90;;;;;;7373277;19;20348;-72
2022/04/20 04:15:22;;;;;;;5.22;4.72;;;3.90;99.90;;;;;;7374469;19;20324;-71
2022/04/20 04:17:54;;;;;;;5.25;4.43;;;4.00;99.90;;;;;;7373892;19;20332;-70
2022/04/20 04:20:22;;;;;;;5.50;4.85;;;4.00;99.90;;;;;;7371714;19;20344;-72
2022/04/20 04:22:50;;;;;;;6.15;5.05;;;4.00;99.90;;;;;;7371890;19;20361;-71
2022/04/20 04:25:34;;;;;;;6.38;4.47;;;4.00;99.90;;;;;;7370197;19;20365;-72
2022/04/20 04:28:01;;;;;;;5.00;4.30;;;4.00;99.90;;;;;;7372560;19;21164;-72
2022/04/20 04:30:27;;;;;;;5.37;4.40;;;4.10;99.90;;;;;;7371203;19;20389;-71
2022/04/20 04:33:02;;;;;;;4.95;4.20;;;4.10;99.90;;;;;;7372698;19;20335;-71
2022/04/20 04:35:30;;;;;;;4.65;4.15;;;4.10;99.90;;;;;;7372234;19;20332;-71
2022/04/20 04:37:56;;;;;;;4.70;4.30;;;4.20;99.90;;;;;;7374701;19;20967;-74
2022/04/20 04:40:24;;;;;;;5.28;4.32;;;4.10;99.90;;;;;;7372624;19;20906;-72
2022/04/20 04:42:52;;;;;;;5.15;4.15;;;4.20;99.90;;;;;;7373237;19;20345;-72
2022/04/20 04:50:52;;;;;;;5.22;4.70;;;4.20;99.90;;;;;;7371228;19;20364;-70
2022/04/20 04:53:17;;;;;;;6.10;4.70;;;4.20;99.90;;;;;;7373014;19;20395;-73
2022/04/20 04:55:43;;;;;;;5.70;4.53;;;4.20;99.90;;;;;;7372740;19;20432;-73
2022/04/20 04:58:09;;;;;;;5.90;4.60;;;4.30;99.90;;;;;;7372641;19;20365;-71
2022/04/20 05:00:34;;;;;;;5.40;4.57;;;4.30;99.90;;;;;;7367923;19;20709;-71
2022/04/20 05:03:17;;;;;;;4.85;4.35;;;4.30;99.90;;;;;;7372369;19;20344;-72
2022/04/20 05:05:46;;;;;;;5.10;4.60;;;4.30;99.90;;;;;;7372630;19;20331;-69
2022/04/20 05:08:12;;;;;;;5.10;4.60;;;4.30;99.90;;;;;;7374000;19;21109;-71
2022/04/20 05:10:38;;;;;;;5.32;4.00;;;4.30;99.90;;;;;;7368441;19;20420;-72
2022/04/20 05:13:05;;;;;;;4.63;4.10;;;4.30;99.90;;;;;;7370937;19;20345;-70
2022/04/20 05:15:31;;;;;;;4.28;3.85;;;4.30;99.90;;;;;;7371708;19;20833;-72
2022/04/20 05:17:57;;;;;;;4.53;4.00;;;4.40;99.90;;;;;;7372914;19;20335;-72
2022/04/20 05:20:23;;;;;;;4.63;3.60;;;4.50;99.90;;;;;;7371530;19;20335;-73
2022/04/20 05:22:49;;;;;;;4.47;4.07;;;4.60;99.90;;;;;;7371732;19;20361;-71
2022/04/20 05:25:15;;;;;;;4.40;4.00;;;4.60;99.90;;;;;;7373086;19;20354;-71
2022/04/20 05:27:42;;;;;;;4.75;3.90;;;4.60;99.90;;;;;;7375256;19;20352;-73
2022/04/20 05:30:13;;;;;;;4.30;3.90;;;4.70;99.90;;;;;;7370455;19;20344;-72
2022/04/20 05:32:40;;;;;;;6.07;4.50;;;4.70;99.90;;;;;;7370410;19;20349;-72
2022/04/20 05:35:12;;;;;;;6.50;4.22;;;4.70;99.90;;;;;;7369931;19;21273;-71
2022/04/20 05:43:11;;;;;;;5.25;4.10;;;4.70;99.90;;;;;;7367661;19;20408;-71
2022/04/20 05:45:38;;;;;;;6.03;4.78;;;4.60;99.90;;;;;;7375034;19;20328;-72
2022/04/20 05:48:17;;;;;;;5.35;4.32;;;4.60;99.90;;;;;;7378124;19;20316;-72
2022/04/20 05:50:43;;;;;;;5.40;3.97;;;4.60;99.90;;;;;;7380962;19;20319;-72
2022/04/20 05:53:09;;;;;;;5.10;4.60;;;4.70;99.90;;;;;;7378559;19;20939;-72
2022/04/20 05:55:35;;;;;;;4.90;4.40;;;4.70;99.90;;;;;;7378785;19;20391;-71
2022/04/20 05:58:01;;;;;;;5.95;4.80;;;4.70;99.90;;;;;;7380546;19;20349;-73
2022/04/20 06:00:27;;;;;;;5.53;4.67;;;4.70;99.90;;;;;;7376318;19;20324;-71
2022/04/20 06:03:18;;;;;;;6.45;4.60;;;4.60;99.90;;;;;;7378672;19;20337;-70
2022/04/20 06:05:46;;;;;;;4.20;3.88;;;4.70;99.90;;;;;;7379555;19;20348;-70
2022/04/20 06:08:24;;;;;;;4.97;4.32;;;4.80;99.90;;;;;;7380102;19;20544;-72
2022/04/20 06:11:02;;;;;;;5.68;4.72;;;4.90;99.90;;;;;;7376685;19;20341;-72
2022/04/20 06:13:29;;;;;;;5.00;4.47;;;5.00;99.90;;;;;;7376554;19;20316;-72
2022/04/20 06:16:06;;;;;;;6.15;4.80;;;5.00;99.90;;;;;;7357695;19;20878;-71
2022/04/20 06:18:56;;;;;;;5.68;4.60;;;5.00;99.90;;;;;;7379925;19;20332;-72
2022/04/20 06:21:26;;;;;;;4.75;4.35;;;5.10;99.90;;;;;;7375768;19;20317;-73
2022/04/20 06:24:10;;;;;;;6.97;5.05;;;5.10;99.90;;;;;;7377757;19;20341;-71
2022/04/20 06:27:02;;;;;;;5.85;4.28;;;5.20;99.90;;;;;;7275695;19;2004463;-72
2022/04/20 06:29:44;;;;;;;5.72;4.68;;;5.30;99.90;;;;;;7276560;19;2006079;-72
2022/04/20 06:32:42;;;;;;;4.82;4.32;;;5.40;99.90;;;;;;7273521;19;2004695;-70
2022/04/20 06:35:23;;;;;;;5.30;4.50;;;5.60;99.90;;;;;;7277001;19;2004353;-71
2022/04/20 06:38:08;;;;;;;4.63;4.15;;;5.70;99.90;;;;;;7277128;19;2004438;-71
2022/04/20 06:40:47;;;;;;;5.38;4.22;;;5.80;99.90;;;;;;7375799;19;20719;-75
2022/04/20 06:43:28;;;;;;;4.40;4.00;;;5.80;99.90;;;;;;7376641;19;20312;-72
2022/04/20 06:46:12;;;;;;;5.30;4.57;;;5.80;99.90;;;;;;7377685;19;20353;-72
2022/04/20 06:48:57;;;;;;;5.57;4.50;;;5.70;99.90;;;;;;7379978;19;20346;-71
2022/04/20 07:00:18;;;;;;;4.43;3.67;;;6.10;99.90;;;;;;7273395;19;2004234;-70
2022/04/20 07:03:09;;;;;;;4.10;3.80;;;6.30;99.90;;;;;;7377312;19;20309;-72
2022/04/20 07:05:55;;;;;;;4.50;4.10;;;6.50;99.90;;;;;;7274277;19;2004399;-71
2022/04/20 07:08:43;;;;;;;5.72;4.30;;;6.70;99.90;;;;;;7280962;19;2004783;-71
2022/04/20 07:11:20;;;;;;;4.70;4.03;;;6.70;99.90;;;;;;7373835;19;20344;-71
2022/04/20 07:13:50;;;;;;;4.53;3.83;;;6.90;99.90;;;;;;7376884;19;20377;-73
2022/04/20 07:16:16;;;;;;;5.22;3.85;;;6.90;99.90;;;;;;7375604;19;20305;-72
2022/04/20 07:18:46;;;;;;;4.35;3.95;;;7.00;99.90;;;;;;7378448;19;20336;-73
2022/04/20 07:21:31;;;;;;;5.00;4.45;;;7.00;99.90;;;;;;7376889;19;20319;-71
2022/04/20 07:24:15;;;;;;;4.50;4.07;;;7.20;99.90;;;;;;7275545;19;2004439;-70
2022/04/20 07:26:59;;;;;;;4.70;4.30;;;7.30;99.90;;;;;;7272231;19;2004514;-72
2022/04/20 07:29:38;;;;;;;4.95;4.18;;;7.30;99.90;;;;;;7374831;19;20365;-72
2022/04/20 07:32:33;;;;;;;6.18;4.45;;;7.50;99.90;;;;;;7375771;19;20332;-73
2022/04/20 07:35:19;;;;;;;3.95;3.55;;;7.60;99.90;;;;;;7274105;19;2004403;-72
2022/04/20 07:38:12;;;;;;;4.20;3.80;;;8.00;99.90;;;;;;7275670;19;2004817;-71
2022/04/20 07:41:07;;;;;;;3.97;3.58;;;8.10;99.90;;;;;;7272196;19;2004466;-73
2022/04/20 07:43:44;;;;;;;4.77;4.07;;;8.40;99.90;;;;;;7375833;19;20347;-71
2022/04/20 07:46:22;;;;;;;5.10;4.17;;;8.30;99.90;;;;;;7274717;19;2004519;-71
2022/04/20 07:52:13;;;;;;;4.00;3.60;;;8.40;99.90;;;;;;7273332;19;2004506;-71
2022/04/20 07:54:58;;;;;;;5.40;4.35;;;8.60;99.90;;;;;;7377315;19;20355;-71
2022/04/20 07:57:39;;;;;;;5.00;4.32;;;8.70;99.90;;;;;;7377371;19;20334;-71
2022/04/20 08:00:11;;;;;;;4.75;4.00;;;8.80;99.90;;;;;;7374731;19;20337;-72
2022/04/20 08:02:49;;;;;;;4.57;4.18;;;8.90;99.90;;;;;;7374174;19;20368;-72
2022/04/20 08:05:24;;;;;;;5.53;3.53;;;9.00;99.90;;;;;;7373766;19;20357;-72
2022/04/20 08:07:51;;;;;;;4.88;3.92;;;9.10;99.90;;;;;;7373541;19;20877;-72
2022/04/20 08:10:17;;;;;;;4.43;3.95;;;9.20;99.90;;;;;;7370673;19;21228;-77
2022/04/20 08:12:43;;;;;;;5.20;4.07;;;9.30;99.90;;;;;;7374882;19;20344;-71
2022/04/20 08:15:13;;;;;;;4.95;4.10;;;9.30;99.90;;;;;;7376937;19;20301;-71
2022/04/20 08:17:44;;;;;;;4.82;3.95;;;9.50;99.90;;;;;;7376652;19;21166;-73
2022/04/20 08:20:33;;;;;;;5.50;4.30;;;9.60;99.90;;;;;;7271255;19;2004440;-72
2022/04/20 08:22:58;;;;;;;4.68;3.80;;;9.70;99.90;;;;;;7372710;19;20395;-70
2022/04/20 08:25:24;;;;;;;5.30;3.93;;;9.80;99.90;;;;;;7374938;19;20361;-71
2022/04/20 08:27:50;;;;;;;4.32;3.85;;;10.00;99.90;;;;;;7376484;19;21015;-69
2022/04/20 08:30:15;;;;;;;4.20;3.53;;;10.10;99.90;;;;;;7368423;19;20353;-71
2022/04/20 08:32:42;;;;;;;4.03;3.63;;;10.00;99.90;;;;;;7374882;19;20362;-72
2022/04/20 08:35:08;;;;;;;3.83;3.27;;;10.00;99.90;;;;;;7372028;19;20419;-70
2022/04/20 08:37:33;;;;;;;4.03;3.50;;;10.20;99.90;;;;;;7375017;19;20416;-71
2022/04/20 08:39:59;;;;;;;5.10;3.78;;;10.20;99.90;;;;;;7374485;19;20329;-70
2022/04/20 08:42:26;;;;;;;3.80;3.33;;;10.40;99.90;;;;;;7372263;19;20322;-74
2022/04/20 08:44:52;;;;;;;4.85;3.83;;;10.30;99.90;;;;;;7374573;19;20389;-72
2022/04/20 08:47:20;;;;;;;4.30;2.95;;;10.40;99.90;;;;;;7375389;19;20320;-76
2022/04/20 08:49:47;;;;;;;3.72;3.25;;;10.40;99.90;;;;;;7380992;19;20348;-77
2022/04/20 08:54:57;;;;;;;1.80;1.70;;;10.50;99.90;;;;;;7376925;19;20743;-74
2022/04/20 08:57:24;;;;;;;2.43;1.80;;;10.60;99.90;;;;;;7376181;19;20320;-75
2022/04/20 08:59:51;;;;;;;3.33;1.92;;;10.60;99.90;;;;;;7374749;19;20341;-73
2022/04/20 09:02:17;;;;;;;2.10;1.90;;;10.70;99.90;;;;;;7371036;19;20353;-74
2022/04/20 09:04:43;;;;;;;2.15;1.95;;;10.80;99.90;;;;;;7375529;19;20339;-75
2022/04/20 09:07:09;;;;;;;2.17;1.95;;;11.00;99.90;;;;;;7374221;19;20366;-73
2022/04/20 09:09:35;;;;;;;2.80;1.90;;;11.10;99.90;;;;;;7374976;19;20373;-74
2022/04/20 09:12:02;;;;;;;2.45;2.05;;;11.10;99.90;;;;;;7372069;19;20328;-74
2022/04/20 09:14:30;;;;;;;2.40;2.20;;;11.10;99.90;;;;;;7374072;19;20312;-73
2022/04/20 09:16:56;;;;;;;2.63;2.28;;;11.00;99.90;;;;;;7376058;19;20341;-76
2022/04/20 09:19:25;;;;;;;2.30;2.10;;;11.10;99.90;;;;;;7378397;19;20322;-77
2022/04/20 09:21:52;;;;;;;3.53;2.10;;;11.00;99.90;;;;;;7381181;19;20332;-75
2022/04/20 09:24:17;;;;;;;2.25;2.00;;;10.80;99.90;;;;;;7382311;19;20357;-75
2022/04/20 09:26:53;;;;;;;2.87;2.37;;;10.70;99.90;;;;;;7381872;19;20894;-75
2022/04/20 09:29:19;;;;;;;2.35;2.03;;;10.60;99.90;;;;;;7382227;19;20858;-73
2022/04/20 09:31:47;;;;;;;2.70;2.45;;;10.50;99.90;;;;;;7378457;19;20313;-75
2022/04/20 09:34:25;;;;;;;2.88;2.40;;;10.40;99.90;;;;;;7379508;19;20865;-76
2022/04/20 09:36:51;;;;;;;2.55;2.35;;;10.40;99.90;;;;;;7380041;19;20492;-74
2022/04/20 09:39:16;;;;;;;6.20;3.58;;;10.40;99.90;;;;;;7379696;19;20320;-76
2022/04/20 09:42:05;;;;;;;3.87;3.00;;;10.20;99.90;;;;;;7379671;19;20321;-76
2022/04/20 09:44:31;;;;;;;4.05;2.13;;;10.10;99.90;;;;;;7275937;19;2004279;-75
2022/04/20 09:50:01;;;;;;;2.47;2.28;;;9.70;99.90;;;;;;7279925;19;2004282;-73
2022/04/20 09:52:47;;;;;;;4.50;2.95;;;9.70;99.90;;;;;;7274351;19;2004710;-75
2022/04/20 09:55:15;;;;;;;2.50;2.30;;;9.70;99.90;;;;;;7378550;19;20320;-76
2022/04/20 09:57:41;;;;;;;2.70;2.50;;;9.70;99.90;;;;;;7380071;19;20352;-74
2022/04/20 10:00:11;;;;;;;2.78;2.45;;;9.80;99.90;;;;;;7377232;19;20355;-73
2022/04/20 10:02:52;;;;;;;2.75;2.53;;;9.90;99.90;;;;;;7378897;19;21083;-74
2022/04/20 10:05:20;;;;;;;2.42;2.20;;;9.90;99.90;;;;;;7378726;19;20415;-74
2022/04/20 10:07:46;;;;;;;3.60;2.78;;;10.00;99.90;;;;;;7378494;19;20352;-76
2022/04/20 10:10:11;;;;;;;4.17;2.93;;;10.10;99.90;;;;;;7377420;19;20333;-73
2022/04/20 10:12:40;;;;;;;3.13;2.30;;;10.20;99.90;;;;;;7377719;19;20309;-73
2022/04/20 10:17:52;;;;;;;2.83;2.43;;;10.20;99.90;;;;;;7380130;19;20433;-74
2022/04/20 10:20:18;;;;;;;3.88;2.35;;;10.30;99.90;;;;;;7377011;19;20375;-75
2022/04/20 10:22:44;;;;;;;4.40;3.17;;;10.20;99.90;;;;;;7379167;19;20321;-74
2022/04/20 10:25:11;;;;;;;3.20;2.90;;;9.90;99.90;;;;;;7377400;19;20420;-74
2022/04/20 10:27:58;;;;;;;2.72;2.53;;;9.70;99.90;;;;;;7379924;19;20327;-74
2022/04/20 10:30:38;;;;;;;2.90;2.47;;;9.60;99.90;;;;;;7376194;19;20366;-77
2022/04/20 10:33:19;;;;;;;3.73;2.80;;;9.30;99.90;;;;;;7380956;19;20377;-74
2022/04/20 10:36:05;;;;;;;2.80;2.58;;;9.60;99.90;;;;;;7376938;19;20341;-75
2022/04/20 10:38:35;;;;;;;3.60;2.70;;;9.60;99.90;;;;;;7274684;19;2004682;-74
2022/04/20 10:41:13;;;;;;;2.90;2.67;;;9.80;99.90;;;;;;7275517;19;2004400;-74
2022/04/20 10:43:42;;;;;;;3.00;2.80;;;9.70;99.90;;;;;;7378264;19;20684;-74
2022/04/20 10:46:18;;;;;;;4.13;2.80;;;9.30;99.90;;;;;;7378389;19;20474;-76
2022/04/20 10:48:58;;;;;;;3.25;2.95;;;9.50;99.90;;;;;;7379562;19;20352;-79
2022/04/20 10:51:32;;;;;;;3.28;2.88;;;9.50;99.90;;;;;;7378011;19;20335;-78
2022/04/20 10:54:26;;;;;;;3.17;2.85;;;9.60;99.90;;;;;;7380042;19;20348;-78
2022/04/20 10:57:02;;;;;;;3.65;3.10;;;9.90;99.90;;;;;;7275589;19;2004469;-75
2022/04/20 10:59:28;;;;;;;4.00;3.50;;;10.20;99.90;;;;;;7380719;19;20333;-75
2022/04/20 11:02:02;;;;;;;4.70;3.28;;;10.10;99.90;;;;;;7377400;19;20390;-77
2022/04/20 11:04:31;;;;;;;3.78;3.40;;;10.10;99.90;;;;;;7379925;19;20655;-78
2022/04/20 11:07:01;;;;;;;3.55;2.97;;;9.50;99.90;;;;;;7379107;19;20906;-79
2022/04/20 11:09:42;;;;;;;3.15;2.88;;;9.70;99.90;;;;;;7377870;19;21008;-78
2022/04/20 11:21:04;;;;;;;3.13;2.83;;;9.80;99.90;;;;;;7274786;19;2004686;-77
2022/04/20 11:23:49;;;;;;;4.35;3.10;;;10.10;99.90;;;;;;7378199;19;20352;-75
2022/04/20 11:26:19;;;;;;;3.00;2.70;;;9.90;99.90;;;;;;7378433;19;20399;-77
2022/04/20 11:28:52;;;;;;;3.63;2.80;;;10.00;99.90;;;;;;7308660;19;20335;-78
2022/04/20 11:31:37;;;;;;;4.43;3.38;;;10.00;99.90;;;;;;7246559;19;20781;-77
2022/04/20 11:34:06;;;;;;;2.75;2.45;;;10.00;99.90;;;;;;7356487;19;20959;-75
2022/04/20 11:36:33;;;;;;;2.53;2.33;;;10.00;99.90;;;;;;7375395;19;20388;-73
2022/04/20 11:38:59;;;;;;;3.97;2.80;;;10.10;99.90;;;;;;7376357;19;20420;-73
2022/04/20 11:41:25;;;;;;;2.63;2.43;;;10.00;99.90;;;;;;7374007;19;20408;-75
2022/04/20 11:43:51;;;;;;;3.00;2.70;;;10.20;99.90;;;;;;7377443;19;20412;-73
2022/04/20 11:46:17;;;;;;;3.40;2.80;;;10.20;99.90;;;;;;7378115;19;20660;-78
2022/04/20 11:48:56;;;;;;;2.97;2.67;;;9.90;99.90;;;;;;7377565;19;20368;-73
2022/04/20 11:51:31;;;;;;;3.83;3.20;;;9.90;99.90;;;;;;7274217;19;2004415;-76
2022/04/20 11:53:56;;;;;;;3.28;2.40;;;9.70;99.90;;;;;;7375837;19;20336;-75
2022/04/20 11:56:42;;;;;;;2.90;2.60;;;9.80;99.90;;;;;;7275488;19;2004327;-75
2022/04/20 11:59:08;;;;;;;2.70;2.50;;;9.60;99.90;;;;;;7380469;19;20337;-76
2022/04/20 12:01:36;;;;;;;3.03;2.83;;;9.10;99.90;;;;;;7373672;19;20304;-77
2022/04/20 12:04:15;;;;;;;4.20;2.90;;;9.30;99.90;;;;;;7378348;19;20304;-79
2022/04/20 12:06:49;;;;;;;2.97;2.78;;;9.50;99.90;;;;;;7375774;19;20358;-75
2022/04/20 12:09:15;;;;;;;2.85;2.65;;;9.50;99.90;;;;;;7378812;19;20365;-77
2022/04/20 12:11:41;;;;;;;4.13;3.27;;;9.40;99.90;;;;;;7380295;19;20839;-77
2022/04/20 12:14:11;;;;;;;3.85;2.67;;;9.50;99.90;;;;;;7378515;19;20304;-77
2022/04/20 12:16:36;;;;;;;3.40;2.70;;;9.50;99.90;;;;;;7378157;19;20333;-76
2022/04/20 12:19:02;;;;;;;2.50;2.30;;;9.50;99.90;;;;;;7378394;19;20986;-76
2022/04/20 12:21:41;;;;;;;2.60;2.40;;;9.10;99.90;;;;;;7373083;19;20339;-77
2022/04/20 12:24:08;;;;;;;2.80;2.50;;;9.10;99.90;;;;;;7274724;19;2004308;-78
2022/04/20 12:26:33;;;;;;;3.22;2.40;;;9.00;99.90;;;;;;7375078;19;20356;-77
2022/04/20 12:29:00;;;;;;;2.50;2.30;;;8.80;99.90;;;;;;7378931;19;20407;-78
2022/04/20 12:31:26;;;;;;;2.75;2.55;;;8.90;99.90;;;;;;7374369;19;20320;-78
2022/04/20 12:34:01;;;;;;;3.00;2.70;;;8.90;99.90;;;;;;7373721;19;20757;-77
2022/04/20 12:36:27;;;;;;;3.88;2.53;;;8.80;99.90;;;;;;7375067;19;21196;-76
2022/04/20 12:38:57;;;;;;;2.60;2.40;;;8.80;99.90;;;;;;7373919;19;20347;-76
2022/04/20 12:41:36;;;;;;;3.58;2.30;;;8.80;99.90;;;;;;7372197;19;20316;-75
2022/04/20 12:44:37;;;;;;;2.40;2.20;;;8.80;99.90;;;;;;7274610;19;2004670;-75
2022/04/20 12:47:11;;;;;;;4.00;2.67;;;8.70;99.90;;;;;;7274327;19;2004479;-75
2022/04/20 12:49:38;;;;;;;2.45;2.25;;;8.80;99.90;;;;;;7375307;19;20329;-75
2022/04/20 12:52:16;;;;;;;2.77;1.97;;;8.80;99.90;;;;;;7371906;19;20339;-75
2022/04/20 12:54:55;;;;;;;2.38;2.17;;;8.80;99.90;;;;;;7377815;19;20336;-75
2022/04/20 13:03:03;;;;;;;2.57;2.20;;;8.90;99.90;;;;;;7176193;19;2004473;-75
2022/04/20 13:05:29;;;;;;;3.05;2.60;;;8.90;99.90;;;;;;7381328;19;20321;-76
2022/04/20 13:07:55;;;;;;;2.45;2.25;;;8.90;99.90;;;;;;7382675;19;20345;-76
2022/04/20 13:10:22;;;;;;;2.35;2.15;;;8.90;99.90;;;;;;7377725;19;20793;-75
2022/04/20 13:12:49;;;;;;;4.05;2.88;;;9.00;99.90;;;;;;7380382;19;20336;-75
2022/04/20 13:15:16;;;;;;;5.50;5.00;;;8.90;99.90;;;;;;7358844;19;20415;-75
2022/04/20 13:17:41;;;;;;;3.78;3.47;;;8.90;99.90;;;;;;7380931;19;21106;-75
2022/04/20 13:20:10;;;;;;;3.75;3.00;;;8.90;99.90;;;;;;7379373;19;20347;-75
2022/04/20 13:22:35;;;;;;;4.05;3.42;;;8.80;99.90;;;;;;7377182;19;20321;-75
2022/04/20 13:27:54;;;;;;;4.07;3.70;;;8.70;99.90;;;;;;7281671;19;2004206;-75
2022/04/20 13:30:27;;;;;;;5.30;4.78;;;8.80;99.90;;;;;;7377747;19;20334;-75
2022/04/20 13:32:55;;;;;;;4.28;3.55;;;8.80;99.90;;;;;;7380088;19;20336;-75
2022/04/20 13:35:21;;;;;;;3.53;3.00;;;8.90;99.90;;;;;;7382275;19;20337;-73
2022/04/20 13:37:47;;;;;;;6.90;4.70;;;8.90;99.90;;;;;;7379016;19;20333;-74
2022/04/20 13:40:12;;;;;;;4.90;2.90;;;8.90;99.90;;;;;;7377815;19;20313;-73
2022/04/20 13:42:38;;;;;;;2.27;2.07;;;8.90;99.90;;;;;;7377792;19;20332;-75
2022/04/20 13:45:07;;;;;;;2.42;1.88;;;8.80;99.90;;;;;;7379832;19;21092;-73
2022/04/20 13:47:33;;;;;;;1.90;1.73;;;8.80;99.90;;;;;;7383529;19;20342;-73
2022/04/20 13:50:00;;;;;;;1.80;1.70;;;8.80;99.90;;;;;;7378092;19;20357;-72
2022/04/20 13:52:26;;;;;;;1.52;1.42;;;8.80;99.90;;;;;;7381912;19;20323;-72
2022/04/20 13:54:53;;;;;;;2.50;1.60;;;8.80;99.90;;;;;;7385226;19;20301;-73
2022/04/20 13:57:19;;;;;;;2.38;1.80;;;8.70;99.90;;;;;;7377380;19;21214;-72
2022/04/20 13:59:46;;;;;;;1.80;1.70;;;8.70;99.90;;;;;;7381218;19;20356;-73
2022/04/20 14:02:14;;;;;;;2.10;1.90;;;8.70;99.90;;;;;;7377894;19;20297;-75
2022/04/20 14:04:40;;;;;;;1.70;1.60;;;8.60;99.90;;;;;;7377230;19;20746;-74